sensor_id;sensor_type;location;lat;lon;timestamp;P1;durP1;ratioP1;P2;durP2;ratioP2
51260;SDS011;61705;46.228;24.812;2023-04-24T00:01:01;15.80;;;7.90;;
51260;SDS011;61705;46.228;24.812;2023-04-24T00:03:28;16.92;;;8.38;;
51260;SDS011;61705;46.228;24.812;2023-04-24T00:05:55;14.88;;;7.63;;
51260;SDS011;61705;46.228;24.812;2023-04-24T00:08:22;16.08;;;8.70;;
51260;SDS011;61705;46.228;24.812;2023-04-24T00:10:50;14.05;;;8.05;;
51260;SDS011;61705;46.228;24.812;2023-04-24T00:13:18;15.07;;;7.22;;
51260;SDS011;61705;46.228;24.812;2023-04-24T00:15:45;16.35;;;8.02;;
51260;SDS011;61705;46.228;24.812;2023-04-24T00:18:11;21.50;;;8.25;;
51260;SDS011;61705;46.228;24.812;2023-04-24T00:20:38;19.27;;;9.25;;
51260;SDS011;61705;46.228;24.812;2023-04-24T00:23:05;18.58;;;8.07;;
51260;SDS011;61705;46.228;24.812;2023-04-24T00:25:32;14.55;;;7.78;;
51260;SDS011;61705;46.228;24.812;2023-04-24T00:27:59;15.70;;;8.30;;
51260;SDS011;61705;46.228;24.812;2023-04-24T00:30:26;15.57;;;8.80;;
51260;SDS011;61705;46.228;24.812;2023-04-24T00:32:53;16.77;;;8.05;;
51260;SDS011;61705;46.228;24.812;2023-04-24T00:35:19;13.90;;;7.65;;
51260;SDS011;61705;46.228;24.812;2023-04-24T00:37:46;27.23;;;9.02;;
51260;SDS011;61705;46.228;24.812;2023-04-24T00:40:13;15.40;;;8.20;;
51260;SDS011;61705;46.228;24.812;2023-04-24T00:42:40;18.67;;;8.32;;
51260;SDS011;61705;46.228;24.812;2023-04-24T00:45:07;21.73;;;8.63;;
51260;SDS011;61705;46.228;24.812;2023-04-24T00:47:34;15.52;;;7.57;;
51260;SDS011;61705;46.228;24.812;2023-04-24T00:50:04;15.73;;;8.32;;
51260;SDS011;61705;46.228;24.812;2023-04-24T00:52:32;15.52;;;8.10;;
51260;SDS011;61705;46.228;24.812;2023-04-24T00:54:59;19.85;;;8.27;;
51260;SDS011;61705;46.228;24.812;2023-04-24T00:57:26;24.75;;;8.63;;
51260;SDS011;61705;46.228;24.812;2023-04-24T00:59:53;17.65;;;8.25;;
51260;SDS011;61705;46.228;24.812;2023-04-24T01:02:21;15.60;;;7.97;;
51260;SDS011;61705;46.228;24.812;2023-04-24T01:04:50;17.75;;;7.95;;
51260;SDS011;61705;46.228;24.812;2023-04-24T01:07:18;13.38;;;7.10;;
51260;SDS011;61705;46.228;24.812;2023-04-24T01:09:48;16.25;;;7.75;;
51260;SDS011;61705;46.228;24.812;2023-04-24T01:12:17;15.35;;;7.90;;
51260;SDS011;61705;46.228;24.812;2023-04-24T01:14:45;12.45;;;6.68;;
51260;SDS011;61705;46.228;24.812;2023-04-24T01:17:11;22.02;;;8.88;;
51260;SDS011;61705;46.228;24.812;2023-04-24T01:19:38;17.30;;;8.30;;
51260;SDS011;61705;46.228;24.812;2023-04-24T01:22:13;16.45;;;7.75;;
51260;SDS011;61705;46.228;24.812;2023-04-24T01:27:08;17.35;;;7.38;;
51260;SDS011;61705;46.228;24.812;2023-04-24T01:29:36;15.10;;;7.57;;
51260;SDS011;61705;46.228;24.812;2023-04-24T01:32:03;15.82;;;7.10;;
51260;SDS011;61705;46.228;24.812;2023-04-24T01:34:31;13.57;;;7.10;;
51260;SDS011;61705;46.228;24.812;2023-04-24T01:36:58;17.83;;;8.00;;
51260;SDS011;61705;46.228;24.812;2023-04-24T01:39:25;14.73;;;7.70;;
51260;SDS011;61705;46.228;24.812;2023-04-24T01:41:55;18.40;;;7.90;;
51260;SDS011;61705;46.228;24.812;2023-04-24T01:44:22;18.27;;;8.05;;
51260;SDS011;61705;46.228;24.812;2023-04-24T01:46:49;17.08;;;7.97;;
51260;SDS011;61705;46.228;24.812;2023-04-24T01:49:17;15.45;;;6.90;;
51260;SDS011;61705;46.228;24.812;2023-04-24T01:51:43;14.77;;;7.00;;
51260;SDS011;61705;46.228;24.812;2023-04-24T01:54:10;18.33;;;9.52;;
51260;SDS011;61705;46.228;24.812;2023-04-24T01:56:39;16.60;;;8.02;;
51260;SDS011;61705;46.228;24.812;2023-04-24T01:59:09;15.70;;;7.35;;
51260;SDS011;61705;46.228;24.812;2023-04-24T02:01:37;19.27;;;7.82;;
51260;SDS011;61705;46.228;24.812;2023-04-24T02:04:05;15.85;;;7.90;;
51260;SDS011;61705;46.228;24.812;2023-04-24T02:06:33;14.40;;;6.95;;
51260;SDS011;61705;46.228;24.812;2023-04-24T02:08:59;16.58;;;8.25;;
51260;SDS011;61705;46.228;24.812;2023-04-24T02:11:26;16.02;;;7.40;;
51260;SDS011;61705;46.228;24.812;2023-04-24T02:13:55;14.02;;;6.95;;
51260;SDS011;61705;46.228;24.812;2023-04-24T02:16:22;16.55;;;7.65;;
51260;SDS011;61705;46.228;24.812;2023-04-24T02:18:49;17.55;;;7.45;;
51260;SDS011;61705;46.228;24.812;2023-04-24T02:21:15;17.83;;;7.60;;
51260;SDS011;61705;46.228;24.812;2023-04-24T02:23:42;14.55;;;7.07;;
51260;SDS011;61705;46.228;24.812;2023-04-24T02:26:09;27.55;;;9.07;;
51260;SDS011;61705;46.228;24.812;2023-04-24T02:28:36;19.42;;;9.32;;
51260;SDS011;61705;46.228;24.812;2023-04-24T02:31:02;20.88;;;8.80;;
51260;SDS011;61705;46.228;24.812;2023-04-24T02:33:29;17.17;;;8.30;;
51260;SDS011;61705;46.228;24.812;2023-04-24T02:35:56;16.02;;;8.70;;
51260;SDS011;61705;46.228;24.812;2023-04-24T02:38:22;18.98;;;8.15;;
51260;SDS011;61705;46.228;24.812;2023-04-24T02:40:49;15.07;;;6.78;;
51260;SDS011;61705;46.228;24.812;2023-04-24T02:43:16;15.63;;;8.00;;
51260;SDS011;61705;46.228;24.812;2023-04-24T02:45:42;19.33;;;8.65;;
51260;SDS011;61705;46.228;24.812;2023-04-24T02:48:09;21.45;;;6.85;;
51260;SDS011;61705;46.228;24.812;2023-04-24T02:50:36;20.20;;;9.27;;
51260;SDS011;61705;46.228;24.812;2023-04-24T02:53:02;21.85;;;7.82;;
51260;SDS011;61705;46.228;24.812;2023-04-24T02:55:29;21.60;;;8.43;;
51260;SDS011;61705;46.228;24.812;2023-04-24T02:57:56;19.10;;;7.95;;
51260;SDS011;61705;46.228;24.812;2023-04-24T03:00:23;18.63;;;7.97;;
51260;SDS011;61705;46.228;24.812;2023-04-24T03:02:49;15.27;;;7.43;;
51260;SDS011;61705;46.228;24.812;2023-04-24T03:05:17;13.57;;;7.32;;
51260;SDS011;61705;46.228;24.812;2023-04-24T03:07:43;14.38;;;7.28;;
51260;SDS011;61705;46.228;24.812;2023-04-24T03:10:11;17.90;;;7.85;;
51260;SDS011;61705;46.228;24.812;2023-04-24T03:12:38;11.38;;;5.65;;
51260;SDS011;61705;46.228;24.812;2023-04-24T03:15:07;25.05;;;10.00;;
51260;SDS011;61705;46.228;24.812;2023-04-24T03:17:34;23.17;;;8.88;;
51260;SDS011;61705;46.228;24.812;2023-04-24T03:20:01;19.83;;;9.07;;
51260;SDS011;61705;46.228;24.812;2023-04-24T03:22:29;23.75;;;10.10;;
51260;SDS011;61705;46.228;24.812;2023-04-24T03:24:58;33.03;;;10.15;;
51260;SDS011;61705;46.228;24.812;2023-04-24T03:27:25;14.40;;;6.72;;
51260;SDS011;61705;46.228;24.812;2023-04-24T03:29:52;23.75;;;8.82;;
51260;SDS011;61705;46.228;24.812;2023-04-24T03:32:21;27.60;;;10.02;;
51260;SDS011;61705;46.228;24.812;2023-04-24T03:34:49;19.60;;;7.75;;
51260;SDS011;61705;46.228;24.812;2023-04-24T03:37:16;31.40;;;10.80;;
51260;SDS011;61705;46.228;24.812;2023-04-24T03:39:43;19.75;;;10.18;;
51260;SDS011;61705;46.228;24.812;2023-04-24T03:42:10;27.10;;;9.43;;
51260;SDS011;61705;46.228;24.812;2023-04-24T03:44:37;38.95;;;18.95;;
51260;SDS011;61705;46.228;24.812;2023-04-24T03:47:03;22.50;;;10.35;;
51260;SDS011;61705;46.228;24.812;2023-04-24T03:49:30;25.08;;;9.10;;
51260;SDS011;61705;46.228;24.812;2023-04-24T03:51:57;19.73;;;7.57;;
51260;SDS011;61705;46.228;24.812;2023-04-24T03:54:24;22.77;;;8.55;;
51260;SDS011;61705;46.228;24.812;2023-04-24T03:56:50;18.02;;;7.68;;
51260;SDS011;61705;46.228;24.812;2023-04-24T03:59:17;31.52;;;9.90;;
51260;SDS011;61705;46.228;24.812;2023-04-24T04:01:44;26.30;;;10.20;;
51260;SDS011;61705;46.228;24.812;2023-04-24T04:04:11;18.40;;;9.10;;
51260;SDS011;61705;46.228;24.812;2023-04-24T04:06:38;26.92;;;9.80;;
51260;SDS011;61705;46.228;24.812;2023-04-24T04:09:05;19.70;;;8.73;;
51260;SDS011;61705;46.228;24.812;2023-04-24T04:11:33;21.08;;;8.75;;
51260;SDS011;61705;46.228;24.812;2023-04-24T04:14:00;26.02;;;9.52;;
51260;SDS011;61705;46.228;24.812;2023-04-24T04:16:27;19.25;;;8.23;;
51260;SDS011;61705;46.228;24.812;2023-04-24T04:18:54;18.45;;;7.30;;
51260;SDS011;61705;46.228;24.812;2023-04-24T04:21:21;17.05;;;7.32;;
51260;SDS011;61705;46.228;24.812;2023-04-24T04:23:48;19.35;;;9.30;;
51260;SDS011;61705;46.228;24.812;2023-04-24T04:26:14;19.05;;;7.30;;
51260;SDS011;61705;46.228;24.812;2023-04-24T04:28:41;15.70;;;6.85;;
51260;SDS011;61705;46.228;24.812;2023-04-24T04:31:08;22.85;;;7.30;;
51260;SDS011;61705;46.228;24.812;2023-04-24T04:33:35;12.60;;;5.47;;
51260;SDS011;61705;46.228;24.812;2023-04-24T04:36:04;17.33;;;6.97;;
51260;SDS011;61705;46.228;24.812;2023-04-24T04:38:31;27.65;;;11.23;;
51260;SDS011;61705;46.228;24.812;2023-04-24T04:40:58;22.20;;;9.18;;
51260;SDS011;61705;46.228;24.812;2023-04-24T04:43:24;25.80;;;10.18;;
51260;SDS011;61705;46.228;24.812;2023-04-24T04:45:51;18.42;;;7.45;;
51260;SDS011;61705;46.228;24.812;2023-04-24T04:48:18;25.48;;;9.50;;
51260;SDS011;61705;46.228;24.812;2023-04-24T04:50:45;15.82;;;7.13;;
51260;SDS011;61705;46.228;24.812;2023-04-24T04:53:12;32.60;;;10.00;;
51260;SDS011;61705;46.228;24.812;2023-04-24T04:55:39;21.05;;;8.30;;
51260;SDS011;61705;46.228;24.812;2023-04-24T04:58:05;18.58;;;8.25;;
51260;SDS011;61705;46.228;24.812;2023-04-24T05:00:32;17.25;;;8.27;;
51260;SDS011;61705;46.228;24.812;2023-04-24T05:03:02;16.17;;;7.70;;
51260;SDS011;61705;46.228;24.812;2023-04-24T05:05:45;16.35;;;6.85;;
51260;SDS011;61705;46.228;24.812;2023-04-24T05:08:12;27.23;;;9.00;;
51260;SDS011;61705;46.228;24.812;2023-04-24T05:10:52;24.38;;;9.23;;
51260;SDS011;61705;46.228;24.812;2023-04-24T05:13:19;23.77;;;10.43;;
51260;SDS011;61705;46.228;24.812;2023-04-24T05:16:01;22.42;;;9.93;;
51260;SDS011;61705;46.228;24.812;2023-04-24T05:18:28;26.00;;;9.65;;
51260;SDS011;61705;46.228;24.812;2023-04-24T05:20:54;32.50;;;11.05;;
51260;SDS011;61705;46.228;24.812;2023-04-24T05:23:21;25.42;;;12.35;;
51260;SDS011;61705;46.228;24.812;2023-04-24T05:25:48;34.90;;;15.73;;
51260;SDS011;61705;46.228;24.812;2023-04-24T05:28:15;36.13;;;14.65;;
51260;SDS011;61705;46.228;24.812;2023-04-24T05:30:41;30.60;;;10.65;;
51260;SDS011;61705;46.228;24.812;2023-04-24T05:33:08;40.83;;;12.70;;
51260;SDS011;61705;46.228;24.812;2023-04-24T05:35:36;51.25;;;14.38;;
51260;SDS011;61705;46.228;24.812;2023-04-24T05:38:02;31.38;;;9.77;;
51260;SDS011;61705;46.228;24.812;2023-04-24T05:40:29;28.13;;;11.00;;
51260;SDS011;61705;46.228;24.812;2023-04-24T05:42:56;35.38;;;14.73;;
51260;SDS011;61705;46.228;24.812;2023-04-24T05:45:22;34.75;;;11.15;;
51260;SDS011;61705;46.228;24.812;2023-04-24T05:47:49;23.15;;;10.45;;
51260;SDS011;61705;46.228;24.812;2023-04-24T05:50:19;23.02;;;11.65;;
51260;SDS011;61705;46.228;24.812;2023-04-24T05:52:46;23.85;;;9.48;;
51260;SDS011;61705;46.228;24.812;2023-04-24T05:55:12;33.05;;;9.20;;
51260;SDS011;61705;46.228;24.812;2023-04-24T05:57:39;20.52;;;8.48;;
51260;SDS011;61705;46.228;24.812;2023-04-24T06:00:06;29.92;;;10.80;;
51260;SDS011;61705;46.228;24.812;2023-04-24T06:02:34;28.77;;;11.27;;
51260;SDS011;61705;46.228;24.812;2023-04-24T06:05:01;21.33;;;10.73;;
51260;SDS011;61705;46.228;24.812;2023-04-24T06:07:28;35.22;;;16.80;;
51260;SDS011;61705;46.228;24.812;2023-04-24T06:09:55;27.80;;;11.60;;
51260;SDS011;61705;46.228;24.812;2023-04-24T06:12:22;29.95;;;10.93;;
51260;SDS011;61705;46.228;24.812;2023-04-24T06:14:49;31.38;;;12.43;;
51260;SDS011;61705;46.228;24.812;2023-04-24T06:17:16;30.25;;;12.65;;
51260;SDS011;61705;46.228;24.812;2023-04-24T06:19:43;31.20;;;14.15;;
51260;SDS011;61705;46.228;24.812;2023-04-24T06:22:10;27.50;;;12.93;;
51260;SDS011;61705;46.228;24.812;2023-04-24T06:24:36;31.92;;;12.43;;
51260;SDS011;61705;46.228;24.812;2023-04-24T06:27:03;30.80;;;11.95;;
51260;SDS011;61705;46.228;24.812;2023-04-24T06:29:30;23.85;;;10.68;;
51260;SDS011;61705;46.228;24.812;2023-04-24T06:31:57;25.33;;;12.05;;
51260;SDS011;61705;46.228;24.812;2023-04-24T06:34:23;18.92;;;8.98;;
51260;SDS011;61705;46.228;24.812;2023-04-24T06:36:50;24.08;;;12.38;;
51260;SDS011;61705;46.228;24.812;2023-04-24T06:39:17;19.23;;;9.73;;
51260;SDS011;61705;46.228;24.812;2023-04-24T06:41:44;24.80;;;8.98;;
51260;SDS011;61705;46.228;24.812;2023-04-24T06:44:12;18.45;;;8.95;;
51260;SDS011;61705;46.228;24.812;2023-04-24T06:46:41;16.75;;;7.75;;
51260;SDS011;61705;46.228;24.812;2023-04-24T06:49:07;15.15;;;8.50;;
51260;SDS011;61705;46.228;24.812;2023-04-24T06:51:34;21.67;;;7.82;;
51260;SDS011;61705;46.228;24.812;2023-04-24T06:54:01;16.83;;;9.65;;
51260;SDS011;61705;46.228;24.812;2023-04-24T06:56:28;16.92;;;7.63;;
51260;SDS011;61705;46.228;24.812;2023-04-24T06:58:57;16.10;;;7.95;;
51260;SDS011;61705;46.228;24.812;2023-04-24T07:01:27;15.48;;;7.05;;
51260;SDS011;61705;46.228;24.812;2023-04-24T07:03:54;13.13;;;7.13;;
51260;SDS011;61705;46.228;24.812;2023-04-24T07:06:21;17.35;;;7.32;;
51260;SDS011;61705;46.228;24.812;2023-04-24T07:23:32;30.90;;;13.88;;
51260;SDS011;61705;46.228;24.812;2023-04-24T07:25:59;14.00;;;6.38;;
51260;SDS011;61705;46.228;24.812;2023-04-24T07:28:25;14.50;;;5.85;;
51260;SDS011;61705;46.228;24.812;2023-04-24T07:30:52;12.93;;;6.13;;
51260;SDS011;61705;46.228;24.812;2023-04-24T07:33:20;16.55;;;6.35;;
51260;SDS011;61705;46.228;24.812;2023-04-24T07:35:47;11.75;;;5.60;;
51260;SDS011;61705;46.228;24.812;2023-04-24T07:38:14;13.38;;;5.85;;
51260;SDS011;61705;46.228;24.812;2023-04-24T07:40:41;12.98;;;5.93;;
51260;SDS011;61705;46.228;24.812;2023-04-24T07:43:08;10.50;;;5.15;;
51260;SDS011;61705;46.228;24.812;2023-04-24T07:45:35;11.20;;;6.10;;
51260;SDS011;61705;46.228;24.812;2023-04-24T07:48:03;10.93;;;5.65;;
51260;SDS011;61705;46.228;24.812;2023-04-24T10:01:44;9.20;;;4.65;;
51260;SDS011;61705;46.228;24.812;2023-04-24T10:04:26;6.75;;;4.15;;
51260;SDS011;61705;46.228;24.812;2023-04-24T10:06:55;7.28;;;4.32;;
51260;SDS011;61705;46.228;24.812;2023-04-24T10:09:24;9.23;;;3.85;;
51260;SDS011;61705;46.228;24.812;2023-04-24T10:36:33;7.80;;;4.10;;
51260;SDS011;61705;46.228;24.812;2023-04-24T10:46:33;9.27;;;5.55;;
51260;SDS011;61705;46.228;24.812;2023-04-24T10:49:00;9.73;;;4.40;;
51260;SDS011;61705;46.228;24.812;2023-04-24T10:51:46;20.60;;;6.00;;
51260;SDS011;61705;46.228;24.812;2023-04-24T10:59:24;15.25;;;6.38;;
51260;SDS011;61705;46.228;24.812;2023-04-24T11:01:53;10.52;;;4.72;;
51260;SDS011;61705;46.228;24.812;2023-04-24T11:04:30;6.45;;;3.72;;
51260;SDS011;61705;46.228;24.812;2023-04-24T11:06:58;13.27;;;4.68;;
51260;SDS011;61705;46.228;24.812;2023-04-24T11:09:28;6.88;;;3.70;;
51260;SDS011;61705;46.228;24.812;2023-04-24T11:12:04;8.52;;;4.75;;
51260;SDS011;61705;46.228;24.812;2023-04-24T11:17:38;9.63;;;4.78;;
51260;SDS011;61705;46.228;24.812;2023-04-24T11:20:16;15.00;;;4.67;;
51260;SDS011;61705;46.228;24.812;2023-04-24T11:22:50;7.90;;;4.35;;
51260;SDS011;61705;46.228;24.812;2023-04-24T11:25:21;7.50;;;4.60;;
51260;SDS011;61705;46.228;24.812;2023-04-24T11:27:49;8.52;;;4.00;;
51260;SDS011;61705;46.228;24.812;2023-04-24T11:30:17;13.43;;;4.95;;
51260;SDS011;61705;46.228;24.812;2023-04-24T11:32:50;8.07;;;4.50;;
51260;SDS011;61705;46.228;24.812;2023-04-24T11:35:18;7.72;;;4.60;;
51260;SDS011;61705;46.228;24.812;2023-04-24T11:37:54;10.00;;;4.53;;
51260;SDS011;61705;46.228;24.812;2023-04-24T11:40:24;11.00;;;4.70;;
51260;SDS011;61705;46.228;24.812;2023-04-24T11:42:52;9.52;;;4.38;;
51260;SDS011;61705;46.228;24.812;2023-04-24T11:45:23;16.45;;;5.03;;
51260;SDS011;61705;46.228;24.812;2023-04-24T11:47:52;11.45;;;4.63;;
51260;SDS011;61705;46.228;24.812;2023-04-24T11:50:21;10.85;;;5.22;;
51260;SDS011;61705;46.228;24.812;2023-04-24T11:52:50;10.30;;;4.85;;
51260;SDS011;61705;46.228;24.812;2023-04-24T11:57:48;9.60;;;5.05;;
51260;SDS011;61705;46.228;24.812;2023-04-24T12:00:17;10.63;;;4.50;;
51260;SDS011;61705;46.228;24.812;2023-04-24T12:02:47;9.18;;;5.10;;
51260;SDS011;61705;46.228;24.812;2023-04-24T12:05:25;5.75;;;4.43;;
51260;SDS011;61705;46.228;24.812;2023-04-24T12:07:55;10.73;;;4.78;;
51260;SDS011;61705;46.228;24.812;2023-04-24T12:10:22;8.25;;;4.93;;
51260;SDS011;61705;46.228;24.812;2023-04-24T12:12:51;9.07;;;3.85;;
51260;SDS011;61705;46.228;24.812;2023-04-24T12:15:19;9.18;;;4.60;;
51260;SDS011;61705;46.228;24.812;2023-04-24T12:17:47;9.38;;;5.10;;
51260;SDS011;61705;46.228;24.812;2023-04-24T12:20:14;13.60;;;4.25;;
51260;SDS011;61705;46.228;24.812;2023-04-24T12:22:48;7.53;;;4.18;;
51260;SDS011;61705;46.228;24.812;2023-04-24T12:25:23;10.60;;;4.70;;
51260;SDS011;61705;46.228;24.812;2023-04-24T12:27:52;9.88;;;4.40;;
51260;SDS011;61705;46.228;24.812;2023-04-24T12:30:25;9.20;;;4.70;;
51260;SDS011;61705;46.228;24.812;2023-04-24T12:32:58;9.48;;;5.45;;
51260;SDS011;61705;46.228;24.812;2023-04-24T12:35:27;9.48;;;4.63;;
51260;SDS011;61705;46.228;24.812;2023-04-24T12:37:55;11.48;;;5.07;;
51260;SDS011;61705;46.228;24.812;2023-04-24T12:40:31;16.05;;;6.05;;
51260;SDS011;61705;46.228;24.812;2023-04-24T12:42:58;13.23;;;6.03;;
51260;SDS011;61705;46.228;24.812;2023-04-24T12:45:24;12.20;;;5.30;;
51260;SDS011;61705;46.228;24.812;2023-04-24T12:47:51;16.77;;;6.05;;
51260;SDS011;61705;46.228;24.812;2023-04-24T12:50:18;39.17;;;7.78;;
51260;SDS011;61705;46.228;24.812;2023-04-24T12:52:45;7.95;;;4.57;;
51260;SDS011;61705;46.228;24.812;2023-04-24T12:55:11;13.45;;;6.35;;
51260;SDS011;61705;46.228;24.812;2023-04-24T12:57:39;21.08;;;6.03;;
51260;SDS011;61705;46.228;24.812;2023-04-24T13:00:06;10.35;;;5.50;;
51260;SDS011;61705;46.228;24.812;2023-04-24T13:02:34;26.45;;;6.47;;
51260;SDS011;61705;46.228;24.812;2023-04-24T13:05:02;8.05;;;4.70;;
51260;SDS011;61705;46.228;24.812;2023-04-24T13:07:30;6.55;;;4.10;;
51260;SDS011;61705;46.228;24.812;2023-04-24T13:09:57;15.60;;;6.00;;
51260;SDS011;61705;46.228;24.812;2023-04-24T13:12:24;13.68;;;6.15;;
51260;SDS011;61705;46.228;24.812;2023-04-24T13:14:54;7.80;;;4.57;;
51260;SDS011;61705;46.228;24.812;2023-04-24T13:17:24;22.60;;;6.82;;
51260;SDS011;61705;46.228;24.812;2023-04-24T13:19:51;15.75;;;6.20;;
51260;SDS011;61705;46.228;24.812;2023-04-24T13:22:18;8.20;;;4.47;;
51260;SDS011;61705;46.228;24.812;2023-04-24T13:24:45;9.07;;;4.97;;
51260;SDS011;61705;46.228;24.812;2023-04-24T13:27:11;8.65;;;4.45;;
51260;SDS011;61705;46.228;24.812;2023-04-24T13:29:38;20.13;;;5.78;;
51260;SDS011;61705;46.228;24.812;2023-04-24T13:32:04;10.88;;;5.20;;
51260;SDS011;61705;46.228;24.812;2023-04-24T13:34:32;15.20;;;6.65;;
51260;SDS011;61705;46.228;24.812;2023-04-24T13:37:00;11.90;;;4.50;;
51260;SDS011;61705;46.228;24.812;2023-04-24T13:39:27;18.77;;;6.45;;
51260;SDS011;61705;46.228;24.812;2023-04-24T13:41:56;17.38;;;5.13;;
51260;SDS011;61705;46.228;24.812;2023-04-24T13:44:23;13.38;;;7.32;;
51260;SDS011;61705;46.228;24.812;2023-04-24T13:46:51;7.70;;;4.60;;
51260;SDS011;61705;46.228;24.812;2023-04-24T13:49:21;13.00;;;4.80;;
51260;SDS011;61705;46.228;24.812;2023-04-24T13:51:47;13.25;;;6.65;;
51260;SDS011;61705;46.228;24.812;2023-04-24T13:54:14;7.60;;;3.72;;
51260;SDS011;61705;46.228;24.812;2023-04-24T13:56:41;9.20;;;4.10;;
51260;SDS011;61705;46.228;24.812;2023-04-24T13:59:08;12.48;;;4.63;;
51260;SDS011;61705;46.228;24.812;2023-04-24T14:01:35;8.57;;;5.28;;
51260;SDS011;61705;46.228;24.812;2023-04-24T14:04:02;9.50;;;4.25;;
51260;SDS011;61705;46.228;24.812;2023-04-24T14:06:29;15.38;;;4.72;;
51260;SDS011;61705;46.228;24.812;2023-04-24T14:08:55;11.73;;;5.18;;
51260;SDS011;61705;46.228;24.812;2023-04-24T14:11:22;14.27;;;5.55;;
51260;SDS011;61705;46.228;24.812;2023-04-24T14:13:49;13.77;;;5.22;;
51260;SDS011;61705;46.228;24.812;2023-04-24T14:16:16;8.65;;;4.50;;
51260;SDS011;61705;46.228;24.812;2023-04-24T14:18:43;10.55;;;4.50;;
51260;SDS011;61705;46.228;24.812;2023-04-24T14:21:10;10.23;;;4.13;;
51260;SDS011;61705;46.228;24.812;2023-04-24T14:23:36;9.30;;;4.40;;
51260;SDS011;61705;46.228;24.812;2023-04-24T14:26:03;5.55;;;3.50;;
51260;SDS011;61705;46.228;24.812;2023-04-24T14:28:30;7.00;;;4.05;;
51260;SDS011;61705;46.228;24.812;2023-04-24T14:30:56;9.50;;;4.07;;
51260;SDS011;61705;46.228;24.812;2023-04-24T14:33:23;13.43;;;4.47;;
51260;SDS011;61705;46.228;24.812;2023-04-24T14:35:50;8.73;;;4.30;;
51260;SDS011;61705;46.228;24.812;2023-04-24T14:38:16;8.48;;;4.03;;
51260;SDS011;61705;46.228;24.812;2023-04-24T14:40:43;8.45;;;4.40;;
51260;SDS011;61705;46.228;24.812;2023-04-24T14:43:30;11.35;;;4.32;;
51260;SDS011;61705;46.228;24.812;2023-04-24T14:45:56;19.02;;;4.57;;
51260;SDS011;61705;46.228;24.812;2023-04-24T14:48:23;9.00;;;4.40;;
51260;SDS011;61705;46.228;24.812;2023-04-24T14:50:50;7.75;;;4.28;;
51260;SDS011;61705;46.228;24.812;2023-04-24T14:53:16;16.02;;;5.28;;
51260;SDS011;61705;46.228;24.812;2023-04-24T14:55:43;12.05;;;5.07;;
51260;SDS011;61705;46.228;24.812;2023-04-24T14:58:10;10.45;;;4.57;;
51260;SDS011;61705;46.228;24.812;2023-04-24T15:00:37;14.45;;;4.97;;
51260;SDS011;61705;46.228;24.812;2023-04-24T15:03:06;8.35;;;4.15;;
51260;SDS011;61705;46.228;24.812;2023-04-24T15:05:34;9.30;;;4.30;;
51260;SDS011;61705;46.228;24.812;2023-04-24T15:08:01;15.73;;;4.47;;
51260;SDS011;61705;46.228;24.812;2023-04-24T15:10:28;8.35;;;4.50;;
51260;SDS011;61705;46.228;24.812;2023-04-24T15:12:56;12.45;;;5.45;;
51260;SDS011;61705;46.228;24.812;2023-04-24T15:15:23;18.63;;;5.80;;
51260;SDS011;61705;46.228;24.812;2023-04-24T15:17:49;12.45;;;4.85;;
51260;SDS011;61705;46.228;24.812;2023-04-24T15:20:16;23.25;;;6.28;;
51260;SDS011;61705;46.228;24.812;2023-04-24T15:22:44;12.85;;;4.80;;
51260;SDS011;61705;46.228;24.812;2023-04-24T15:25:13;13.00;;;5.15;;
51260;SDS011;61705;46.228;24.812;2023-04-24T15:27:43;17.75;;;6.63;;
51260;SDS011;61705;46.228;24.812;2023-04-24T15:30:11;9.43;;;5.25;;
51260;SDS011;61705;46.228;24.812;2023-04-24T15:32:38;11.10;;;4.60;;
51260;SDS011;61705;46.228;24.812;2023-04-24T15:35:08;18.40;;;5.18;;
51260;SDS011;61705;46.228;24.812;2023-04-24T15:37:38;8.90;;;5.32;;
51260;SDS011;61705;46.228;24.812;2023-04-24T15:40:05;9.57;;;4.70;;
51260;SDS011;61705;46.228;24.812;2023-04-24T15:42:34;21.45;;;6.40;;
51260;SDS011;61705;46.228;24.812;2023-04-24T15:45:01;35.15;;;8.00;;
51260;SDS011;61705;46.228;24.812;2023-04-24T15:47:28;14.55;;;5.80;;
51260;SDS011;61705;46.228;24.812;2023-04-24T15:49:55;11.93;;;5.20;;
51260;SDS011;61705;46.228;24.812;2023-04-24T15:52:23;16.85;;;6.65;;
51260;SDS011;61705;46.228;24.812;2023-04-24T15:54:50;25.63;;;6.90;;
51260;SDS011;61705;46.228;24.812;2023-04-24T15:57:20;11.10;;;5.22;;
51260;SDS011;61705;46.228;24.812;2023-04-24T15:59:49;29.20;;;6.72;;
51260;SDS011;61705;46.228;24.812;2023-04-24T16:02:18;27.35;;;8.15;;
51260;SDS011;61705;46.228;24.812;2023-04-24T16:04:50;14.32;;;6.10;;
51260;SDS011;61705;46.228;24.812;2023-04-24T16:07:18;11.15;;;5.35;;
51260;SDS011;61705;46.228;24.812;2023-04-24T16:09:45;12.50;;;5.60;;
51260;SDS011;61705;46.228;24.812;2023-04-24T16:12:13;8.18;;;4.93;;
51260;SDS011;61705;46.228;24.812;2023-04-24T16:14:40;32.22;;;8.15;;
51260;SDS011;61705;46.228;24.812;2023-04-24T16:17:07;18.10;;;6.10;;
51260;SDS011;61705;46.228;24.812;2023-04-24T16:19:33;9.25;;;5.28;;
51260;SDS011;61705;46.228;24.812;2023-04-24T16:22:01;20.83;;;6.15;;
51260;SDS011;61705;46.228;24.812;2023-04-24T16:24:31;16.70;;;6.65;;
51260;SDS011;61705;46.228;24.812;2023-04-24T16:27:00;13.68;;;5.05;;
51260;SDS011;61705;46.228;24.812;2023-04-24T16:29:27;18.40;;;11.35;;
51260;SDS011;61705;46.228;24.812;2023-04-24T16:32:00;14.82;;;5.35;;
51260;SDS011;61705;46.228;24.812;2023-04-24T16:34:29;12.88;;;5.63;;
51260;SDS011;61705;46.228;24.812;2023-04-24T16:36:55;17.60;;;7.95;;
51260;SDS011;61705;46.228;24.812;2023-04-24T16:39:24;18.05;;;8.40;;
51260;SDS011;61705;46.228;24.812;2023-04-24T16:41:57;25.40;;;11.05;;
51260;SDS011;61705;46.228;24.812;2023-04-24T16:44:26;17.05;;;7.63;;
51260;SDS011;61705;46.228;24.812;2023-04-24T16:46:53;32.72;;;12.05;;
51260;SDS011;61705;46.228;24.812;2023-04-24T16:49:20;31.58;;;11.63;;
51260;SDS011;61705;46.228;24.812;2023-04-24T16:51:49;57.97;;;20.08;;
51260;SDS011;61705;46.228;24.812;2023-04-24T16:54:16;33.85;;;14.40;;
51260;SDS011;61705;46.228;24.812;2023-04-24T16:56:44;62.13;;;19.08;;
51260;SDS011;61705;46.228;24.812;2023-04-24T16:59:11;40.28;;;15.70;;
51260;SDS011;61705;46.228;24.812;2023-04-24T17:01:38;21.75;;;10.05;;
51260;SDS011;61705;46.228;24.812;2023-04-24T17:04:08;34.28;;;8.90;;
51260;SDS011;61705;46.228;24.812;2023-04-24T17:06:34;14.68;;;8.98;;
51260;SDS011;61705;46.228;24.812;2023-04-24T17:09:10;21.60;;;9.05;;
51260;SDS011;61705;46.228;24.812;2023-04-24T17:11:38;22.05;;;10.00;;
51260;SDS011;61705;46.228;24.812;2023-04-24T17:14:07;24.20;;;9.48;;
51260;SDS011;61705;46.228;24.812;2023-04-24T17:16:35;38.75;;;10.35;;
51260;SDS011;61705;46.228;24.812;2023-04-24T17:19:02;52.75;;;13.45;;
51260;SDS011;61705;46.228;24.812;2023-04-24T17:21:32;45.42;;;10.82;;
51260;SDS011;61705;46.228;24.812;2023-04-24T17:23:59;33.83;;;13.50;;
51260;SDS011;61705;46.228;24.812;2023-04-24T17:26:28;23.27;;;10.70;;
51260;SDS011;61705;46.228;24.812;2023-04-24T17:28:57;12.38;;;5.80;;
51260;SDS011;61705;46.228;24.812;2023-04-24T17:38:45;13.65;;;6.35;;
51260;SDS011;61705;46.228;24.812;2023-04-24T17:41:12;21.33;;;7.30;;
51260;SDS011;61705;46.228;24.812;2023-04-24T17:43:42;12.52;;;5.95;;